This demonstration page uses our WeatherBlox Daily Observations layout. Learn more.

38.88101, -77.10428

Hourly Observations for March 23, 2016

Temp ( °F °C ) Dew Point ( °F °C ) Humidity (%) Winds ( mph kmh ) Pressure ( in mb ) Visibility ( mi km ) Precip ( " mm )
12:52 am 00:52 Mostly Clear 56 13.3 31 -0.6 39 39 SSW 18 30 30 1016 10 16.09344 0 0
1:52 am 01:52 Mostly Cloudy 57 13.9 30 -1.1 36 36 SSW 16 26 30 1016 10 16.09344 0 0
2:52 am 02:52 Cloudy 56 13.3 31 -0.6 39 39 SSW 12 19 29.97 1015 10 16.09344 0 0
3:52 am 03:52 Cloudy 56 13.3 31 -0.6 39 39 SSW 10 17 29.97 1015 10 16.09344 0 0
4:52 am 04:52 Cloudy 55 12.8 31 -0.6 40 40 SSW 9 15 29.97 1015 10 16.09344 0 0
5:52 am 05:52 Cloudy 54 12.2 31 -0.6 42 42 SSW 9 15 30 1016 10 16.09344 0 0
6:52 am 06:52 Cloudy 54 12.2 32 0 43 43 SSW 9 15 30 1016 10 16.09344 0 0
7:52 am 07:52 Cloudy 54 12.2 33 0.6 45 45 SSW 8 13 30.03 1017 10 16.09344 0 0
8:52 am 08:52 Cloudy 56 13.3 33 0.6 42 42 SSW 12 19 30.03 1017 10 16.09344 0 0
9:52 am 09:52 Cloudy 58 14.4 39 3.9 50 50 S 9 15 30.03 1017 10 16.09344 0 0
10:52 am 10:52 Cloudy 59 15 40 4.4 49 49 S 13 20 30.06 1018 10 16.09344 0 0
11:52 am 11:52 Cloudy 61 16.1 40 4.4 46 46 S 14 22 30.06 1018 10 16.09344 0 0
12:52 pm 12:52 Cloudy 67 19.4 40 4.4 37 37 SSE 12 19 30.03 1017 10 16.09344 0 0
1:52 pm 13:52 Cloudy 70 21.1 35 1.7 28 28 S 17 28 30 1016 10 16.09344 0 0
2:52 pm 14:52 Cloudy 70 21.1 38 3.3 31 31 S 16 26 29.97 1015 10 16.09344 0 0
3:52 pm 15:52 Partly Cloudy 74 23.3 36 2.2 25 25 S 14 22 29.97 1015 10 16.09344 0 0
4:52 pm 16:52 Mostly Cloudy 72 22.2 39 3.9 30 30 S 17 28 29.94 1014 10 16.09344 0 0
5:52 pm 17:52 Mostly Cloudy 71 21.7 38 3.3 30 30 S 13 20 29.94 1014 10 16.09344 0 0
6:52 pm 18:52 Mostly Cloudy 68 20 39 3.9 35 35 S 12 19 29.97 1015 10 16.09344 0 0
7:52 pm 19:52 Mostly Clear 65 18.3 38 3.3 37 37 SSW 9 15 29.97 1015 10 16.09344 0 0
8:52 pm 20:52 Mostly Clear 61 16.1 39 3.9 44 44 SSW 9 15 29.97 1015 10 16.09344 0 0
9:52 pm 21:52 Clear 60 15.6 41 5 50 50 S 10 17 29.97 1015 10 16.09344 0 0
10:52 pm 22:52 Clear 60 15.6 39 3.9 46 46 S 10 17 29.97 1015 10 16.09344 0 0
11:52 pm 23:52 Clear 59 15 41 5 51 51 S 12 19 29.97 1015 10 16.09344 0 0

Powered by AerisWeather